sensor_id;sensor_type;location;lat;lon;timestamp;temperature;humidity
45549;DHT22;31270;48.328;10.096;2022-08-05T00:01:19;23.10;99.90
45549;DHT22;31270;48.328;10.096;2022-08-05T00:03:46;23.10;99.90
45549;DHT22;31270;48.328;10.096;2022-08-05T00:06:13;23.10;99.90
45549;DHT22;31270;48.328;10.096;2022-08-05T00:08:39;23.10;99.90
45549;DHT22;31270;48.328;10.096;2022-08-05T00:11:07;23.00;99.90
45549;DHT22;31270;48.328;10.096;2022-08-05T00:13:35;22.90;99.90
45549;DHT22;31270;48.328;10.096;2022-08-05T00:16:01;22.90;99.90
45549;DHT22;31270;48.328;10.096;2022-08-05T00:18:27;22.80;99.90
45549;DHT22;31270;48.328;10.096;2022-08-05T00:20:53;22.80;99.90
45549;DHT22;31270;48.328;10.096;2022-08-05T00:23:20;22.80;99.90
45549;DHT22;31270;48.328;10.096;2022-08-05T00:25:47;22.80;99.90
45549;DHT22;31270;48.328;10.096;2022-08-05T00:28:13;22.70;99.90
45549;DHT22;31270;48.328;10.096;2022-08-05T00:30:39;22.70;99.90
45549;DHT22;31270;48.328;10.096;2022-08-05T00:33:04;22.70;99.90
45549;DHT22;31270;48.328;10.096;2022-08-05T00:35:30;22.70;99.90
45549;DHT22;31270;48.328;10.096;2022-08-05T00:37:56;22.70;99.90
45549;DHT22;31270;48.328;10.096;2022-08-05T00:40:24;22.70;99.90
45549;DHT22;31270;48.328;10.096;2022-08-05T00:42:49;22.70;99.90
45549;DHT22;31270;48.328;10.096;2022-08-05T00:45:15;22.70;99.90
45549;DHT22;31270;48.328;10.096;2022-08-05T00:47:40;22.60;99.90
45549;DHT22;31270;48.328;10.096;2022-08-05T00:50:07;22.70;99.90
45549;DHT22;31270;48.328;10.096;2022-08-05T00:52:33;22.70;99.90
45549;DHT22;31270;48.328;10.096;2022-08-05T00:54:59;22.60;99.90
45549;DHT22;31270;48.328;10.096;2022-08-05T00:57:24;22.60;99.90
45549;DHT22;31270;48.328;10.096;2022-08-05T00:59:50;22.60;99.90
45549;DHT22;31270;48.328;10.096;2022-08-05T01:02:16;22.60;99.90
45549;DHT22;31270;48.328;10.096;2022-08-05T01:04:41;22.50;99.90
45549;DHT22;31270;48.328;10.096;2022-08-05T01:07:07;22.50;99.90
45549;DHT22;31270;48.328;10.096;2022-08-05T01:09:32;22.50;99.90
45549;DHT22;31270;48.328;10.096;2022-08-05T01:12:02;22.50;99.90
45549;DHT22;31270;48.328;10.096;2022-08-05T01:15:02;22.50;99.90
45549;DHT22;31270;48.328;10.096;2022-08-05T01:17:41;22.40;99.90
45549;DHT22;31270;48.328;10.096;2022-08-05T01:20:39;22.50;99.90
45549;DHT22;31270;48.328;10.096;2022-08-05T01:28:45;22.20;99.90
45549;DHT22;31270;48.328;10.096;2022-08-05T01:31:44;22.20;99.90
45549;DHT22;31270;48.328;10.096;2022-08-05T01:34:31;22.10;99.90
45549;DHT22;31270;48.328;10.096;2022-08-05T01:37:11;22.00;99.90
45549;DHT22;31270;48.328;10.096;2022-08-05T01:39:39;22.00;99.90
45549;DHT22;31270;48.328;10.096;2022-08-05T01:42:07;21.90;99.90
45549;DHT22;31270;48.328;10.096;2022-08-05T01:44:34;21.90;99.90
45549;DHT22;31270;48.328;10.096;2022-08-05T01:47:00;21.80;99.90
45549;DHT22;31270;48.328;10.096;2022-08-05T01:49:28;21.80;99.90
45549;DHT22;31270;48.328;10.096;2022-08-05T01:52:00;21.70;99.90
45549;DHT22;31270;48.328;10.096;2022-08-05T01:54:37;21.60;99.90
45549;DHT22;31270;48.328;10.096;2022-08-05T01:57:04;21.60;99.90
45549;DHT22;31270;48.328;10.096;2022-08-05T01:59:31;21.50;99.90
45549;DHT22;31270;48.328;10.096;2022-08-05T02:01:58;21.40;99.90
45549;DHT22;31270;48.328;10.096;2022-08-05T02:04:27;21.40;99.90
45549;DHT22;31270;48.328;10.096;2022-08-05T02:06:55;21.40;99.90
45549;DHT22;31270;48.328;10.096;2022-08-05T02:09:21;21.40;99.90
45549;DHT22;31270;48.328;10.096;2022-08-05T02:11:58;21.30;99.90
45549;DHT22;31270;48.328;10.096;2022-08-05T02:14:29;21.20;99.90
45549;DHT22;31270;48.328;10.096;2022-08-05T02:17:03;21.20;99.90
45549;DHT22;31270;48.328;10.096;2022-08-05T02:19:33;21.10;99.90
45549;DHT22;31270;48.328;10.096;2022-08-05T02:24:46;21.10;99.90
45549;DHT22;31270;48.328;10.096;2022-08-05T02:27:15;21.10;99.90
45549;DHT22;31270;48.328;10.096;2022-08-05T02:29:43;21.00;99.90
45549;DHT22;31270;48.328;10.096;2022-08-05T02:32:10;21.00;99.90
45549;DHT22;31270;48.328;10.096;2022-08-05T02:34:37;20.90;99.90
45549;DHT22;31270;48.328;10.096;2022-08-05T02:37:07;20.90;99.90
45549;DHT22;31270;48.328;10.096;2022-08-05T02:39:37;20.90;99.90
45549;DHT22;31270;48.328;10.096;2022-08-05T02:42:06;20.80;99.90
45549;DHT22;31270;48.328;10.096;2022-08-05T02:44:35;20.80;99.90
45549;DHT22;31270;48.328;10.096;2022-08-05T02:47:06;20.80;99.90
45549;DHT22;31270;48.328;10.096;2022-08-05T02:49:38;20.70;99.90
45549;DHT22;31270;48.328;10.096;2022-08-05T02:52:12;20.60;99.90
45549;DHT22;31270;48.328;10.096;2022-08-05T02:54:39;20.60;99.90
45549;DHT22;31270;48.328;10.096;2022-08-05T02:57:11;20.60;99.90
45549;DHT22;31270;48.328;10.096;2022-08-05T02:59:37;20.60;99.90
45549;DHT22;31270;48.328;10.096;2022-08-05T03:02:05;20.60;99.90
45549;DHT22;31270;48.328;10.096;2022-08-05T03:04:32;20.60;99.90
45549;DHT22;31270;48.328;10.096;2022-08-05T03:06:58;20.60;99.90
45549;DHT22;31270;48.328;10.096;2022-08-05T03:09:24;20.60;99.90
45549;DHT22;31270;48.328;10.096;2022-08-05T03:11:50;20.60;99.90
45549;DHT22;31270;48.328;10.096;2022-08-05T03:14:16;20.60;99.90
45549;DHT22;31270;48.328;10.096;2022-08-05T03:16:41;20.60;99.90
45549;DHT22;31270;48.328;10.096;2022-08-05T03:19:07;20.70;99.90
45549;DHT22;31270;48.328;10.096;2022-08-05T03:21:32;20.50;99.90
45549;DHT22;31270;48.328;10.096;2022-08-05T03:23:58;20.50;99.90
45549;DHT22;31270;48.328;10.096;2022-08-05T03:26:25;20.60;99.90
45549;DHT22;31270;48.328;10.096;2022-08-05T03:28:51;20.60;99.90
45549;DHT22;31270;48.328;10.096;2022-08-05T03:31:16;20.60;99.90
45549;DHT22;31270;48.328;10.096;2022-08-05T03:33:42;20.60;99.90
45549;DHT22;31270;48.328;10.096;2022-08-05T03:36:08;20.60;99.90
45549;DHT22;31270;48.328;10.096;2022-08-05T03:38:39;20.60;99.90
45549;DHT22;31270;48.328;10.096;2022-08-05T03:41:06;20.70;99.90
45549;DHT22;31270;48.328;10.096;2022-08-05T03:43:32;20.70;99.90
45549;DHT22;31270;48.328;10.096;2022-08-05T03:45:57;20.70;99.90
45549;DHT22;31270;48.328;10.096;2022-08-05T03:48:23;20.70;99.90
45549;DHT22;31270;48.328;10.096;2022-08-05T03:50:57;20.70;99.90
45549;DHT22;31270;48.328;10.096;2022-08-05T03:53:33;20.80;99.90
45549;DHT22;31270;48.328;10.096;2022-08-05T03:56:06;20.70;99.90
45549;DHT22;31270;48.328;10.096;2022-08-05T03:58:36;20.80;99.90
45549;DHT22;31270;48.328;10.096;2022-08-05T04:01:06;20.80;99.90
45549;DHT22;31270;48.328;10.096;2022-08-05T04:03:34;20.90;99.90
45549;DHT22;31270;48.328;10.096;2022-08-05T04:06:03;20.80;99.90
45549;DHT22;31270;48.328;10.096;2022-08-05T04:08:31;20.90;99.90
45549;DHT22;31270;48.328;10.096;2022-08-05T04:10:58;20.90;99.90
45549;DHT22;31270;48.328;10.096;2022-08-05T04:13:25;20.90;99.90
45549;DHT22;31270;48.328;10.096;2022-08-05T04:15:51;21.00;99.90
45549;DHT22;31270;48.328;10.096;2022-08-05T04:18:17;21.00;99.90
45549;DHT22;31270;48.328;10.096;2022-08-05T04:20:43;21.10;99.90
45549;DHT22;31270;48.328;10.096;2022-08-05T04:23:09;21.10;99.90
45549;DHT22;31270;48.328;10.096;2022-08-05T04:25:35;21.20;99.90
45549;DHT22;31270;48.328;10.096;2022-08-05T04:28:01;21.30;99.90
45549;DHT22;31270;48.328;10.096;2022-08-05T04:30:27;21.30;99.90
45549;DHT22;31270;48.328;10.096;2022-08-05T04:32:52;21.30;99.90
45549;DHT22;31270;48.328;10.096;2022-08-05T04:35:18;21.30;99.90
45549;DHT22;31270;48.328;10.096;2022-08-05T04:37:43;21.30;99.90
45549;DHT22;31270;48.328;10.096;2022-08-05T04:40:10;21.30;99.90
45549;DHT22;31270;48.328;10.096;2022-08-05T04:42:35;21.30;99.90
45549;DHT22;31270;48.328;10.096;2022-08-05T04:45:01;21.40;99.90
45549;DHT22;31270;48.328;10.096;2022-08-05T04:47:27;21.40;99.90
45549;DHT22;31270;48.328;10.096;2022-08-05T04:49:52;21.40;99.90
45549;DHT22;31270;48.328;10.096;2022-08-05T04:52:18;21.40;99.90
45549;DHT22;31270;48.328;10.096;2022-08-05T04:54:43;21.50;99.90
45549;DHT22;31270;48.328;10.096;2022-08-05T04:57:09;21.50;99.90
45549;DHT22;31270;48.328;10.096;2022-08-05T04:59:34;21.50;99.90
45549;DHT22;31270;48.328;10.096;2022-08-05T05:02:00;21.60;99.90
45549;DHT22;31270;48.328;10.096;2022-08-05T05:04:26;21.70;99.90
45549;DHT22;31270;48.328;10.096;2022-08-05T05:06:51;21.70;99.90
45549;DHT22;31270;48.328;10.096;2022-08-05T05:09:17;21.70;99.90
45549;DHT22;31270;48.328;10.096;2022-08-05T05:11:42;21.80;99.90
45549;DHT22;31270;48.328;10.096;2022-08-05T05:14:08;21.90;99.90
45549;DHT22;31270;48.328;10.096;2022-08-05T05:16:33;21.90;99.90
45549;DHT22;31270;48.328;10.096;2022-08-05T05:18:59;22.00;99.90
45549;DHT22;31270;48.328;10.096;2022-08-05T05:21:25;22.10;99.90
45549;DHT22;31270;48.328;10.096;2022-08-05T05:23:50;22.10;99.90
45549;DHT22;31270;48.328;10.096;2022-08-05T05:26:16;22.20;99.90
45549;DHT22;31270;48.328;10.096;2022-08-05T05:28:42;22.40;99.90
45549;DHT22;31270;48.328;10.096;2022-08-05T05:31:07;22.40;99.90
45549;DHT22;31270;48.328;10.096;2022-08-05T05:33:33;22.40;99.90
45549;DHT22;31270;48.328;10.096;2022-08-05T05:35:58;22.50;99.90
45549;DHT22;31270;48.328;10.096;2022-08-05T05:38:24;22.50;99.90
45549;DHT22;31270;48.328;10.096;2022-08-05T05:40:50;22.60;99.90
45549;DHT22;31270;48.328;10.096;2022-08-05T05:43:15;22.70;99.90
45549;DHT22;31270;48.328;10.096;2022-08-05T05:45:41;22.70;99.90
45549;DHT22;31270;48.328;10.096;2022-08-05T05:48:06;22.80;99.90
45549;DHT22;31270;48.328;10.096;2022-08-05T05:50:33;22.80;99.90
45549;DHT22;31270;48.328;10.096;2022-08-05T05:52:59;22.90;99.90
45549;DHT22;31270;48.328;10.096;2022-08-05T05:55:25;22.90;99.90
45549;DHT22;31270;48.328;10.096;2022-08-05T05:57:51;22.90;99.90
45549;DHT22;31270;48.328;10.096;2022-08-05T06:00:18;22.90;99.90
45549;DHT22;31270;48.328;10.096;2022-08-05T06:02:44;23.00;99.90
45549;DHT22;31270;48.328;10.096;2022-08-05T06:05:12;23.00;99.90
45549;DHT22;31270;48.328;10.096;2022-08-05T06:07:38;22.90;99.90
45549;DHT22;31270;48.328;10.096;2022-08-05T06:10:05;23.00;99.90
45549;DHT22;31270;48.328;10.096;2022-08-05T06:12:31;23.00;99.90
45549;DHT22;31270;48.328;10.096;2022-08-05T06:14:56;23.00;99.90
45549;DHT22;31270;48.328;10.096;2022-08-05T06:17:23;23.10;99.90
45549;DHT22;31270;48.328;10.096;2022-08-05T06:19:49;23.10;99.90
45549;DHT22;31270;48.328;10.096;2022-08-05T06:22:25;23.10;99.90
45549;DHT22;31270;48.328;10.096;2022-08-05T06:24:52;23.10;99.90
45549;DHT22;31270;48.328;10.096;2022-08-05T06:27:17;23.10;99.90
45549;DHT22;31270;48.328;10.096;2022-08-05T06:29:43;23.10;99.90
45549;DHT22;31270;48.328;10.096;2022-08-05T06:32:09;23.30;99.90
45549;DHT22;31270;48.328;10.096;2022-08-05T06:34:35;23.20;99.90
45549;DHT22;31270;48.328;10.096;2022-08-05T06:37:01;23.40;99.90
45549;DHT22;31270;48.328;10.096;2022-08-05T06:39:26;23.40;99.90
45549;DHT22;31270;48.328;10.096;2022-08-05T06:41:52;23.60;99.90
45549;DHT22;31270;48.328;10.096;2022-08-05T06:44:18;23.60;99.90
45549;DHT22;31270;48.328;10.096;2022-08-05T06:46:43;23.90;99.90
45549;DHT22;31270;48.328;10.096;2022-08-05T06:49:09;24.30;99.90
45549;DHT22;31270;48.328;10.096;2022-08-05T06:51:35;24.50;99.90
45549;DHT22;31270;48.328;10.096;2022-08-05T06:54:02;24.80;99.90
45549;DHT22;31270;48.328;10.096;2022-08-05T06:56:29;25.00;99.90
45549;DHT22;31270;48.328;10.096;2022-08-05T06:58:55;25.10;99.90
45549;DHT22;31270;48.328;10.096;2022-08-05T07:01:21;25.20;99.90
45549;DHT22;31270;48.328;10.096;2022-08-05T07:03:47;25.20;99.90
45549;DHT22;31270;48.328;10.096;2022-08-05T07:06:12;25.20;99.90
45549;DHT22;31270;48.328;10.096;2022-08-05T07:08:38;25.30;99.90
45549;DHT22;31270;48.328;10.096;2022-08-05T07:11:03;25.20;99.90
45549;DHT22;31270;48.328;10.096;2022-08-05T07:13:29;25.30;99.90
45549;DHT22;31270;48.328;10.096;2022-08-05T07:16:16;25.50;99.90
45549;DHT22;31270;48.328;10.096;2022-08-05T07:19:01;25.90;99.90
45549;DHT22;31270;48.328;10.096;2022-08-05T07:21:26;26.20;99.90
45549;DHT22;31270;48.328;10.096;2022-08-05T07:23:52;26.40;99.90
45549;DHT22;31270;48.328;10.096;2022-08-05T07:26:18;26.60;99.90
45549;DHT22;31270;48.328;10.096;2022-08-05T07:28:43;26.80;99.90
45549;DHT22;31270;48.328;10.096;2022-08-05T07:31:09;27.00;99.90
45549;DHT22;31270;48.328;10.096;2022-08-05T07:33:34;27.10;99.90
45549;DHT22;31270;48.328;10.096;2022-08-05T07:36:00;27.20;99.90
45549;DHT22;31270;48.328;10.096;2022-08-05T07:38:26;27.30;99.90
45549;DHT22;31270;48.328;10.096;2022-08-05T07:40:52;27.50;99.90
45549;DHT22;31270;48.328;10.096;2022-08-05T07:43:17;27.70;99.90
45549;DHT22;31270;48.328;10.096;2022-08-05T07:45:43;27.80;99.90
45549;DHT22;31270;48.328;10.096;2022-08-05T07:48:10;28.00;99.90
45549;DHT22;31270;48.328;10.096;2022-08-05T07:50:36;28.10;99.90
45549;DHT22;31270;48.328;10.096;2022-08-05T07:53:01;28.20;99.90
45549;DHT22;31270;48.328;10.096;2022-08-05T07:55:27;28.40;99.90
45549;DHT22;31270;48.328;10.096;2022-08-05T07:57:53;28.40;99.90
45549;DHT22;31270;48.328;10.096;2022-08-05T08:00:19;28.50;99.90
45549;DHT22;31270;48.328;10.096;2022-08-05T08:02:44;28.50;99.90
45549;DHT22;31270;48.328;10.096;2022-08-05T08:05:10;28.60;99.90
45549;DHT22;31270;48.328;10.096;2022-08-05T08:07:36;28.70;99.90
45549;DHT22;31270;48.328;10.096;2022-08-05T08:10:03;28.80;99.90
45549;DHT22;31270;48.328;10.096;2022-08-05T08:12:29;28.90;99.90
45549;DHT22;31270;48.328;10.096;2022-08-05T08:14:55;29.00;99.80
45549;DHT22;31270;48.328;10.096;2022-08-05T08:17:21;29.30;99.50
45549;DHT22;31270;48.328;10.096;2022-08-05T08:19:46;29.50;99.90
45549;DHT22;31270;48.328;10.096;2022-08-05T08:22:12;29.50;98.30
45549;DHT22;31270;48.328;10.096;2022-08-05T08:24:38;29.70;98.50
45549;DHT22;31270;48.328;10.096;2022-08-05T08:27:04;29.90;97.80
45549;DHT22;31270;48.328;10.096;2022-08-05T08:29:30;30.00;96.80
45549;DHT22;31270;48.328;10.096;2022-08-05T08:31:56;30.10;97.70
45549;DHT22;31270;48.328;10.096;2022-08-05T08:34:24;30.20;97.60
45549;DHT22;31270;48.328;10.096;2022-08-05T08:36:50;30.50;96.10
45549;DHT22;31270;48.328;10.096;2022-08-05T08:39:16;30.80;96.30
45549;DHT22;31270;48.328;10.096;2022-08-05T08:41:49;30.90;95.30
45549;DHT22;31270;48.328;10.096;2022-08-05T08:44:17;31.00;94.00
45549;DHT22;31270;48.328;10.096;2022-08-05T08:46:43;31.00;94.20
45549;DHT22;31270;48.328;10.096;2022-08-05T08:49:12;31.00;93.80
45549;DHT22;31270;48.328;10.096;2022-08-05T08:51:40;31.10;93.30
45549;DHT22;31270;48.328;10.096;2022-08-05T08:54:06;31.30;93.50
45549;DHT22;31270;48.328;10.096;2022-08-05T08:56:32;31.40;93.10
45549;DHT22;31270;48.328;10.096;2022-08-05T08:58:59;31.20;93.10
45549;DHT22;31270;48.328;10.096;2022-08-05T09:01:25;31.20;93.10
45549;DHT22;31270;48.328;10.096;2022-08-05T09:03:53;31.40;92.90
45549;DHT22;31270;48.328;10.096;2022-08-05T09:06:21;31.50;92.60
45549;DHT22;31270;48.328;10.096;2022-08-05T09:08:47;31.50;93.60
45549;DHT22;31270;48.328;10.096;2022-08-05T09:11:13;31.60;92.70
45549;DHT22;31270;48.328;10.096;2022-08-05T09:13:40;31.70;91.90
45549;DHT22;31270;48.328;10.096;2022-08-05T09:16:06;31.70;92.70
45549;DHT22;31270;48.328;10.096;2022-08-05T09:18:34;31.70;92.40
45549;DHT22;31270;48.328;10.096;2022-08-05T09:21:01;31.80;91.80
45549;DHT22;31270;48.328;10.096;2022-08-05T09:23:26;31.50;91.70
45549;DHT22;31270;48.328;10.096;2022-08-05T09:26:06;31.50;92.40
45549;DHT22;31270;48.328;10.096;2022-08-05T09:28:33;31.70;92.30
45549;DHT22;31270;48.328;10.096;2022-08-05T09:33:30;32.10;91.90
45549;DHT22;31270;48.328;10.096;2022-08-05T09:36:01;32.10;91.20
45549;DHT22;31270;48.328;10.096;2022-08-05T09:38:28;32.10;91.70
45549;DHT22;31270;48.328;10.096;2022-08-05T09:41:04;31.90;91.60
45549;DHT22;31270;48.328;10.096;2022-08-05T09:43:37;32.20;91.30
45549;DHT22;31270;48.328;10.096;2022-08-05T09:46:05;32.20;91.50
45549;DHT22;31270;48.328;10.096;2022-08-05T09:48:36;32.30;90.50
45549;DHT22;31270;48.328;10.096;2022-08-05T09:51:08;32.30;89.80
45549;DHT22;31270;48.328;10.096;2022-08-05T09:53:50;32.40;90.20
45549;DHT22;31270;48.328;10.096;2022-08-05T09:56:27;32.20;88.60
45549;DHT22;31270;48.328;10.096;2022-08-05T09:59:22;32.00;90.10
45549;DHT22;31270;48.328;10.096;2022-08-05T10:01:48;32.10;90.00
45549;DHT22;31270;48.328;10.096;2022-08-05T10:04:14;32.10;88.90
45549;DHT22;31270;48.328;10.096;2022-08-05T10:06:41;32.20;89.50
45549;DHT22;31270;48.328;10.096;2022-08-05T10:11:37;32.60;87.10
45549;DHT22;31270;48.328;10.096;2022-08-05T10:16:45;32.40;85.40
45549;DHT22;31270;48.328;10.096;2022-08-05T10:19:11;32.20;87.30
45549;DHT22;31270;48.328;10.096;2022-08-05T10:21:38;32.40;83.80
45549;DHT22;31270;48.328;10.096;2022-08-05T10:24:05;32.70;84.70
45549;DHT22;31270;48.328;10.096;2022-08-05T10:26:31;32.60;84.50
45549;DHT22;31270;48.328;10.096;2022-08-05T10:28:57;32.90;85.20
45549;DHT22;31270;48.328;10.096;2022-08-05T10:31:23;33.30;86.00
45549;DHT22;31270;48.328;10.096;2022-08-05T10:33:49;33.30;81.90
45549;DHT22;31270;48.328;10.096;2022-08-05T10:36:14;33.30;80.90
45549;DHT22;31270;48.328;10.096;2022-08-05T10:38:43;33.30;82.10
45549;DHT22;31270;48.328;10.096;2022-08-05T10:41:17;33.40;82.00
45549;DHT22;31270;48.328;10.096;2022-08-05T10:44:01;33.70;82.60
45549;DHT22;31270;48.328;10.096;2022-08-05T10:46:46;34.30;81.90
45549;DHT22;31270;48.328;10.096;2022-08-05T10:49:13;34.40;83.20
45549;DHT22;31270;48.328;10.096;2022-08-05T10:51:43;34.40;80.30
45549;DHT22;31270;48.328;10.096;2022-08-05T10:54:09;34.00;80.10
45549;DHT22;31270;48.328;10.096;2022-08-05T10:56:53;34.00;80.50
45549;DHT22;31270;48.328;10.096;2022-08-05T10:59:26;34.30;80.40
45549;DHT22;31270;48.328;10.096;2022-08-05T11:02:12;34.30;82.70
45549;DHT22;31270;48.328;10.096;2022-08-05T11:04:44;34.50;82.10
45549;DHT22;31270;48.328;10.096;2022-08-05T11:07:11;34.50;80.20
45549;DHT22;31270;48.328;10.096;2022-08-05T11:09:47;34.40;82.20
45549;DHT22;31270;48.328;10.096;2022-08-05T11:17:36;34.50;82.30
45549;DHT22;31270;48.328;10.096;2022-08-05T11:20:11;34.60;78.20
45549;DHT22;31270;48.328;10.096;2022-08-05T11:22:52;34.60;77.50
45549;DHT22;31270;48.328;10.096;2022-08-05T11:25:35;34.10;77.70
45549;DHT22;31270;48.328;10.096;2022-08-05T11:33:37;34.00;78.40
45549;DHT22;31270;48.328;10.096;2022-08-05T11:36:10;34.10;79.40
45549;DHT22;31270;48.328;10.096;2022-08-05T11:41:26;33.70;76.80
45549;DHT22;31270;48.328;10.096;2022-08-05T11:46:25;34.20;78.40
45549;DHT22;31270;48.328;10.096;2022-08-05T11:48:52;34.30;78.10
45549;DHT22;31270;48.328;10.096;2022-08-05T11:51:18;34.40;79.30
45549;DHT22;31270;48.328;10.096;2022-08-05T11:53:45;34.50;80.80
45549;DHT22;31270;48.328;10.096;2022-08-05T11:56:11;34.60;80.60
45549;DHT22;31270;48.328;10.096;2022-08-05T11:58:38;34.90;78.80
45549;DHT22;31270;48.328;10.096;2022-08-05T12:01:06;35.40;77.70
45549;DHT22;31270;48.328;10.096;2022-08-05T12:03:53;35.40;76.50
45549;DHT22;31270;48.328;10.096;2022-08-05T12:06:25;35.70;76.30
45549;DHT22;31270;48.328;10.096;2022-08-05T12:08:58;36.00;75.50
45549;DHT22;31270;48.328;10.096;2022-08-05T12:11:26;36.00;75.80
45549;DHT22;31270;48.328;10.096;2022-08-05T12:16:23;36.20;75.70
45549;DHT22;31270;48.328;10.096;2022-08-05T12:18:49;36.00;73.90
45549;DHT22;31270;48.328;10.096;2022-08-05T12:21:17;36.00;75.80
45549;DHT22;31270;48.328;10.096;2022-08-05T12:24:04;36.40;75.50
45549;DHT22;31270;48.328;10.096;2022-08-05T12:28:56;36.80;74.20
45549;DHT22;31270;48.328;10.096;2022-08-05T12:31:22;36.40;73.10
45549;DHT22;31270;48.328;10.096;2022-08-05T12:33:48;36.10;74.80
45549;DHT22;31270;48.328;10.096;2022-08-05T12:36:15;36.50;71.40
45549;DHT22;31270;48.328;10.096;2022-08-05T12:38:41;36.60;71.60
45549;DHT22;31270;48.328;10.096;2022-08-05T12:41:11;36.50;71.90
45549;DHT22;31270;48.328;10.096;2022-08-05T12:43:52;36.70;72.60
45549;DHT22;31270;48.328;10.096;2022-08-05T12:46:27;37.00;75.50
45549;DHT22;31270;48.328;10.096;2022-08-05T12:49:01;37.20;72.30
45549;DHT22;31270;48.328;10.096;2022-08-05T12:51:28;37.00;70.30
45549;DHT22;31270;48.328;10.096;2022-08-05T12:54:00;36.70;71.70
45549;DHT22;31270;48.328;10.096;2022-08-05T12:56:28;36.40;74.10
45549;DHT22;31270;48.328;10.096;2022-08-05T12:59:19;36.10;72.30
45549;DHT22;31270;48.328;10.096;2022-08-05T13:02:03;36.50;74.00
45549;DHT22;31270;48.328;10.096;2022-08-05T13:04:30;36.90;72.80
45549;DHT22;31270;48.328;10.096;2022-08-05T13:06:58;37.20;71.60
45549;DHT22;31270;48.328;10.096;2022-08-05T13:09:25;37.10;71.90
45549;DHT22;31270;48.328;10.096;2022-08-05T13:12:04;37.40;70.80
45549;DHT22;31270;48.328;10.096;2022-08-05T13:14:39;37.20;69.10
45549;DHT22;31270;48.328;10.096;2022-08-05T13:17:27;37.00;67.90
45549;DHT22;31270;48.328;10.096;2022-08-05T13:20:16;36.70;68.90
45549;DHT22;31270;48.328;10.096;2022-08-05T13:22:47;36.30;68.10
45549;DHT22;31270;48.328;10.096;2022-08-05T13:25:14;36.20;69.40
45549;DHT22;31270;48.328;10.096;2022-08-05T13:27:51;36.00;68.30
45549;DHT22;31270;48.328;10.096;2022-08-05T13:30:20;36.10;68.70
45549;DHT22;31270;48.328;10.096;2022-08-05T13:32:47;36.00;67.90
45549;DHT22;31270;48.328;10.096;2022-08-05T13:35:16;35.60;71.20
45549;DHT22;31270;48.328;10.096;2022-08-05T13:37:43;36.00;69.10
45549;DHT22;31270;48.328;10.096;2022-08-05T13:40:09;36.30;70.30
45549;DHT22;31270;48.328;10.096;2022-08-05T13:42:35;36.60;67.70
45549;DHT22;31270;48.328;10.096;2022-08-05T13:45:01;36.60;66.50
45549;DHT22;31270;48.328;10.096;2022-08-05T13:47:27;36.30;69.20
45549;DHT22;31270;48.328;10.096;2022-08-05T13:49:53;36.50;67.00
45549;DHT22;31270;48.328;10.096;2022-08-05T13:52:20;36.60;69.20
45549;DHT22;31270;48.328;10.096;2022-08-05T13:54:46;36.80;71.30
45549;DHT22;31270;48.328;10.096;2022-08-05T13:57:12;37.10;67.90
45549;DHT22;31270;48.328;10.096;2022-08-05T13:59:40;37.30;68.50
45549;DHT22;31270;48.328;10.096;2022-08-05T14:02:07;37.70;70.60
45549;DHT22;31270;48.328;10.096;2022-08-05T14:04:35;38.10;69.30
45549;DHT22;31270;48.328;10.096;2022-08-05T14:07:22;38.10;67.50
45549;DHT22;31270;48.328;10.096;2022-08-05T14:09:47;38.10;64.80
45549;DHT22;31270;48.328;10.096;2022-08-05T14:12:13;38.00;67.90
45549;DHT22;31270;48.328;10.096;2022-08-05T14:14:39;37.70;64.60
45549;DHT22;31270;48.328;10.096;2022-08-05T14:17:05;37.60;65.00
45549;DHT22;31270;48.328;10.096;2022-08-05T14:19:30;37.30;64.90
45549;DHT22;31270;48.328;10.096;2022-08-05T14:21:57;37.10;66.70
45549;DHT22;31270;48.328;10.096;2022-08-05T14:24:22;37.00;66.60
45549;DHT22;31270;48.328;10.096;2022-08-05T14:26:48;36.70;65.00
45549;DHT22;31270;48.328;10.096;2022-08-05T14:29:13;36.60;66.00
45549;DHT22;31270;48.328;10.096;2022-08-05T14:31:39;36.50;69.20
45549;DHT22;31270;48.328;10.096;2022-08-05T14:34:05;36.60;65.90
45549;DHT22;31270;48.328;10.096;2022-08-05T14:36:30;36.20;66.30
45549;DHT22;31270;48.328;10.096;2022-08-05T14:38:56;35.90;65.90
45549;DHT22;31270;48.328;10.096;2022-08-05T14:41:21;35.80;66.60
45549;DHT22;31270;48.328;10.096;2022-08-05T14:43:47;35.50;66.80
45549;DHT22;31270;48.328;10.096;2022-08-05T14:46:15;35.10;67.40
45549;DHT22;31270;48.328;10.096;2022-08-05T14:48:41;34.70;68.80
45549;DHT22;31270;48.328;10.096;2022-08-05T14:51:06;34.70;70.80
45549;DHT22;31270;48.328;10.096;2022-08-05T14:53:32;34.80;70.00
45549;DHT22;31270;48.328;10.096;2022-08-05T14:55:57;34.80;69.60
45549;DHT22;31270;48.328;10.096;2022-08-05T14:58:23;34.90;71.00
45549;DHT22;31270;48.328;10.096;2022-08-05T15:00:49;35.10;70.20
45549;DHT22;31270;48.328;10.096;2022-08-05T15:03:14;35.30;71.50
45549;DHT22;31270;48.328;10.096;2022-08-05T15:05:40;35.40;68.20
45549;DHT22;31270;48.328;10.096;2022-08-05T15:08:05;35.40;69.20
45549;DHT22;31270;48.328;10.096;2022-08-05T15:10:31;35.70;71.70
45549;DHT22;31270;48.328;10.096;2022-08-05T15:12:57;36.00;71.30
45549;DHT22;31270;48.328;10.096;2022-08-05T15:15:24;36.00;70.10
45549;DHT22;31270;48.328;10.096;2022-08-05T15:17:50;35.80;68.10
45549;DHT22;31270;48.328;10.096;2022-08-05T15:20:16;35.80;68.30
45549;DHT22;31270;48.328;10.096;2022-08-05T15:22:42;35.80;69.20
45549;DHT22;31270;48.328;10.096;2022-08-05T15:25:09;35.80;68.40
45549;DHT22;31270;48.328;10.096;2022-08-05T15:27:34;35.80;67.60
45549;DHT22;31270;48.328;10.096;2022-08-05T15:30:00;35.90;66.70
45549;DHT22;31270;48.328;10.096;2022-08-05T15:32:26;35.70;67.90
45549;DHT22;31270;48.328;10.096;2022-08-05T15:34:52;35.30;67.70
45549;DHT22;31270;48.328;10.096;2022-08-05T15:37:17;34.90;68.70
45549;DHT22;31270;48.328;10.096;2022-08-05T15:39:43;34.60;68.70
45549;DHT22;31270;48.328;10.096;2022-08-05T15:42:09;34.20;69.00
45549;DHT22;31270;48.328;10.096;2022-08-05T15:44:41;34.10;70.40
45549;DHT22;31270;48.328;10.096;2022-08-05T15:47:07;33.80;69.40
45549;DHT22;31270;48.328;10.096;2022-08-05T15:49:33;33.80;70.60
45549;DHT22;31270;48.328;10.096;2022-08-05T15:51:59;33.50;69.10
45549;DHT22;31270;48.328;10.096;2022-08-05T15:54:25;33.30;70.40
45549;DHT22;31270;48.328;10.096;2022-08-05T15:56:50;33.30;71.10
45549;DHT22;31270;48.328;10.096;2022-08-05T15:59:16;33.20;70.90